Time;durP1;ratioP1;P1;durP2;ratioP2;P2;SDS_P1;SDS_P2;PMS_P1;PMS_P2;Temp;Humidity;BMP_temperature;BMP_pressure;BME280_temperature;BME280_humidity;BME280_pressure;Samples;Min_cycle;Max_cycle;Signal;HPM_P1;HPM_P2
2020/12/13 00:01:20;;;;;;;33.88;22.48;;;9.20;99.90;;;;;;4954711;28;20467;-82
2020/12/13 00:03:46;;;;;;;35.95;23.40;;;9.20;99.90;;;;;;4953833;29;20027;-83
2020/12/13 00:06:12;;;;;;;38.28;23.58;;;9.10;99.90;;;;;;4951012;29;20086;-83
2020/12/13 00:08:37;;;;;;;38.58;24.75;;;9.10;99.90;;;;;;4955431;28;20447;-82
2020/12/13 00:11:03;;;;;;;33.55;23.20;;;9.10;99.90;;;;;;4955455;29;20544;-81
2020/12/13 00:13:29;;;;;;;38.75;23.85;;;9.10;99.90;;;;;;4938660;29;20035;-82
2020/12/13 00:15:55;;;;;;;51.95;32.05;;;9.20;99.90;;;;;;4938144;29;20027;-81
2020/12/13 00:18:20;;;;;;;133.35;76.32;;;9.70;99.90;;;;;;4955052;29;20078;-81
2020/12/13 00:20:46;;;;;;;166.30;90.60;;;9.90;99.90;;;;;;4937002;29;20067;-81
2020/12/13 00:23:15;;;;;;;54.50;35.33;;;10.10;99.90;;;;;;4955529;29;20054;-86
2020/12/13 00:25:41;;;;;;;43.47;26.98;;;9.90;99.90;;;;;;4940469;29;20093;-83
2020/12/13 00:28:06;;;;;;;39.78;25.77;;;9.40;99.90;;;;;;4931830;28;20382;-87
2020/12/13 00:30:36;;;;;;;40.13;26.52;;;8.90;99.90;;;;;;4974932;28;20082;-82
2020/12/13 00:33:01;;;;;;;30.85;21.02;;;8.80;99.90;;;;;;4973214;28;20360;-86
2020/12/13 00:35:27;;;;;;;27.73;17.85;;;8.70;99.90;;;;;;4957301;28;20481;-83
2020/12/13 00:37:53;;;;;;;32.97;19.17;;;8.80;99.90;;;;;;4974354;28;20139;-86
2020/12/13 00:40:19;;;;;;;35.10;19.27;;;8.70;99.90;;;;;;4958406;28;20114;-86
2020/12/13 00:42:44;;;;;;;34.03;20.48;;;8.90;99.90;;;;;;4974115;28;20058;-83
2020/12/13 00:45:10;;;;;;;30.80;18.73;;;8.70;99.90;;;;;;4956973;28;20034;-82
2020/12/13 00:47:36;;;;;;;32.47;18.45;;;8.60;99.90;;;;;;4973603;28;20037;-84
2020/12/13 00:50:03;;;;;;;27.90;19.58;;;8.60;99.90;;;;;;4974409;28;20033;-82
2020/12/13 00:52:29;;;;;;;31.15;19.58;;;8.60;99.90;;;;;;4974249;28;20085;-86
2020/12/13 00:54:54;;;;;;;30.27;20.23;;;8.70;99.90;;;;;;4957196;28;20054;-85
2020/12/13 00:57:20;;;;;;;32.83;21.25;;;8.70;99.90;;;;;;4975280;28;20081;-85
2020/12/13 00:59:46;;;;;;;38.15;21.98;;;8.50;99.90;;;;;;4974555;28;20493;-86
2020/12/13 01:02:11;;;;;;;31.95;21.75;;;8.60;99.90;;;;;;4973075;28;20023;-84
2020/12/13 01:04:37;;;;;;;32.28;22.00;;;8.60;99.90;;;;;;4974107;28;20019;-85
2020/12/13 01:07:04;;;;;;;33.58;22.65;;;8.60;99.90;;;;;;4973861;28;20031;-84
2020/12/13 01:09:30;;;;;;;35.58;21.25;;;8.40;99.90;;;;;;4973736;28;20466;-82
2020/12/13 01:11:55;;;;;;;36.05;22.55;;;8.50;99.90;;;;;;4974674;28;20082;-85
2020/12/13 01:14:21;;;;;;;29.42;19.95;;;8.50;99.90;;;;;;4971775;28;20089;-81
2020/12/13 01:16:47;;;;;;;32.67;20.63;;;8.60;99.90;;;;;;4972787;28;20037;-85
2020/12/13 01:19:13;;;;;;;33.15;20.90;;;8.60;99.90;;;;;;4973995;28;20031;-83
2020/12/13 01:21:39;;;;;;;34.40;22.50;;;8.50;99.90;;;;;;4972950;28;20031;-84
2020/12/13 01:24:04;;;;;;;32.22;21.92;;;8.60;99.90;;;;;;4972845;28;20442;-83
2020/12/13 01:26:31;;;;;;;34.15;22.60;;;8.70;99.90;;;;;;4974226;28;20027;-87
2020/12/13 01:28:57;;;;;;;32.58;20.92;;;8.70;99.90;;;;;;4957542;28;20090;-86
2020/12/13 01:31:23;;;;;;;36.22;21.77;;;8.50;99.90;;;;;;4972509;28;20039;-84
2020/12/13 01:33:50;;;;;;;33.55;22.60;;;8.50;99.90;;;;;;4972707;28;20023;-84
2020/12/13 01:36:21;;;;;;;35.17;21.63;;;8.40;99.90;;;;;;4973927;28;20027;-85
2020/12/13 01:38:47;;;;;;;39.67;24.80;;;8.50;99.90;;;;;;4972519;28;20031;-84
2020/12/13 01:41:14;;;;;;;40.50;25.88;;;8.60;99.90;;;;;;4973794;28;20407;-82
2020/12/13 01:43:40;;;;;;;36.63;21.83;;;8.60;99.90;;;;;;4956332;28;20059;-83
2020/12/13 01:46:06;;;;;;;27.55;19.63;;;8.60;99.90;;;;;;4972244;28;20057;-82
2020/12/13 01:48:33;;;;;;;29.10;19.25;;;8.70;99.90;;;;;;4972513;28;20109;-83
2020/12/13 01:53:33;;;;;;;33.63;21.45;;;8.50;99.90;;;;;;4973384;28;20039;-83
2020/12/13 01:56:01;;;;;;;30.13;20.20;;;8.50;99.90;;;;;;4973903;28;20415;-82
2020/12/13 01:58:31;;;;;;;32.95;20.38;;;8.60;99.90;;;;;;4973486;28;20053;-87
2020/12/13 02:01:02;;;;;;;33.17;21.27;;;8.70;99.90;;;;;;4972056;28;20101;-83
2020/12/13 02:03:48;;;;;;;32.40;20.38;;;8.70;99.90;;;;;;4957799;28;20105;-83
2020/12/13 02:06:23;;;;;;;34.97;22.40;;;8.80;99.90;;;;;;4953797;29;20023;-83
2020/12/13 02:08:50;;;;;;;33.55;20.83;;;8.60;99.90;;;;;;4952593;28;20030;-82
2020/12/13 02:11:18;;;;;;;31.08;19.80;;;8.50;99.90;;;;;;4952426;29;20043;-82
2020/12/13 02:13:46;;;;;;;32.00;21.80;;;8.60;99.90;;;;;;4952384;29;20035;-83
2020/12/13 02:16:12;;;;;;;32.28;22.42;;;8.70;99.90;;;;;;4953778;29;20031;-82
2020/12/13 02:18:41;;;;;;;33.22;22.92;;;8.80;99.90;;;;;;4936509;29;20094;-84
2020/12/13 02:21:10;;;;;;;34.03;23.27;;;8.80;99.90;;;;;;4953625;29;20015;-81
2020/12/13 02:23:38;;;;;;;35.80;23.50;;;8.80;99.90;;;;;;4953555;29;20027;-83
2020/12/13 02:26:08;;;;;;;32.95;21.42;;;8.70;99.90;;;;;;4957125;28;20019;-82
2020/12/13 02:28:37;;;;;;;30.05;20.83;;;8.70;99.90;;;;;;4959640;29;20101;-82
2020/12/13 02:31:04;;;;;;;30.95;20.85;;;8.70;99.90;;;;;;4942667;29;20071;-83
2020/12/13 02:33:31;;;;;;;29.83;20.60;;;8.70;99.90;;;;;;4958616;29;20062;-83
2020/12/13 02:35:57;;;;;;;33.47;20.88;;;8.70;99.90;;;;;;4960078;28;20395;-83
2020/12/13 02:38:23;;;;;;;29.15;20.45;;;8.70;99.90;;;;;;4958863;29;20035;-82
2020/12/13 02:40:49;;;;;;;32.45;20.60;;;8.60;99.90;;;;;;4958681;28;20054;-81
2020/12/13 02:43:15;;;;;;;31.30;21.58;;;8.70;99.90;;;;;;4958531;28;20051;-82
2020/12/13 02:45:41;;;;;;;31.63;20.15;;;8.60;99.90;;;;;;4959848;28;20030;-82
2020/12/13 02:48:07;;;;;;;30.75;20.05;;;8.40;99.90;;;;;;4942458;29;20027;-83
2020/12/13 02:50:32;;;;;;;30.05;20.50;;;8.40;99.90;;;;;;4959766;29;20491;-80
2020/12/13 02:52:59;;;;;;;34.50;20.70;;;8.60;99.90;;;;;;4942466;29;20497;-81
2020/12/13 02:55:25;;;;;;;31.77;21.27;;;8.50;99.90;;;;;;4958425;29;20479;-81
2020/12/13 02:57:51;;;;;;;31.90;19.67;;;8.60;99.90;;;;;;4943090;29;20493;-81
2020/12/13 03:00:17;;;;;;;27.92;19.25;;;8.60;99.90;;;;;;4959527;29;20106;-82
2020/12/13 03:02:43;;;;;;;30.33;19.15;;;8.70;99.90;;;;;;4959466;28;20150;-82
2020/12/13 03:05:09;;;;;;;30.10;19.90;;;8.60;99.90;;;;;;4959461;28;20031;-83
2020/12/13 03:07:34;;;;;;;30.52;19.88;;;8.60;99.90;;;;;;4959727;29;20029;-82
2020/12/13 03:10:00;;;;;;;29.42;19.42;;;8.60;99.90;;;;;;4958032;28;20027;-81
2020/12/13 03:12:26;;;;;;;31.63;20.65;;;8.60;99.90;;;;;;4960007;29;20035;-82
2020/12/13 03:14:55;;;;;;;31.88;21.67;;;8.60;99.90;;;;;;4958045;28;20090;-82
2020/12/13 03:17:22;;;;;;;32.85;19.90;;;8.50;99.90;;;;;;4959780;28;20034;-82
2020/12/13 03:19:48;;;;;;;30.17;19.77;;;8.50;99.90;;;;;;4958454;28;20566;-83
2020/12/13 03:22:14;;;;;;;31.00;20.25;;;8.60;99.90;;;;;;4959583;29;20506;-82
2020/12/13 03:24:40;;;;;;;28.30;19.50;;;8.50;99.90;;;;;;4958533;29;20089;-84
2020/12/13 03:27:06;;;;;;;28.83;20.23;;;8.60;99.90;;;;;;4959368;29;20106;-82
2020/12/13 03:29:31;;;;;;;29.08;18.63;;;8.60;99.90;;;;;;4959056;28;20498;-82
2020/12/13 03:31:57;;;;;;;30.08;19.05;;;8.60;99.90;;;;;;4959189;29;20042;-81
2020/12/13 03:34:23;;;;;;;31.83;20.13;;;8.70;99.90;;;;;;4958764;29;20469;-82
2020/12/13 03:36:49;;;;;;;30.70;19.75;;;8.60;99.90;;;;;;4955628;28;20462;-83
2020/12/13 03:39:15;;;;;;;28.38;19.40;;;8.60;99.90;;;;;;4956222;29;20024;-82
2020/12/13 03:41:41;;;;;;;28.95;19.58;;;8.60;99.90;;;;;;4956248;28;20043;-81
2020/12/13 03:44:07;;;;;;;31.20;20.52;;;8.60;99.90;;;;;;4956277;29;20399;-83
2020/12/13 03:46:33;;;;;;;28.70;20.27;;;8.60;99.90;;;;;;4956149;29;20151;-82
2020/12/13 03:48:59;;;;;;;27.50;18.88;;;8.60;99.90;;;;;;4955717;29;20023;-82
2020/12/13 03:51:25;;;;;;;29.77;19.13;;;8.70;99.90;;;;;;4955136;29;20154;-83
2020/12/13 03:53:51;;;;;;;29.08;19.33;;;8.70;99.90;;;;;;4954998;29;20129;-81
2020/12/13 03:56:17;;;;;;;30.13;19.83;;;8.70;99.90;;;;;;4956072;29;20436;-81
2020/12/13 03:58:42;;;;;;;29.70;19.33;;;8.70;99.90;;;;;;4954799;29;20039;-82
2020/12/13 04:01:08;;;;;;;29.60;19.65;;;8.70;99.90;;;;;;4954645;29;20734;-81
2020/12/13 04:03:34;;;;;;;30.23;19.90;;;8.70;99.90;;;;;;4955748;29;20027;-80
2020/12/13 04:06:00;;;;;;;25.33;18.50;;;8.70;99.90;;;;;;4954314;29;20162;-82
2020/12/13 04:08:25;;;;;;;33.15;19.50;;;8.70;99.90;;;;;;4956112;28;20074;-82
2020/12/13 04:10:51;;;;;;;29.88;19.35;;;8.70;99.90;;;;;;4954381;28;20042;-82
2020/12/13 04:13:17;;;;;;;32.38;20.15;;;8.70;99.90;;;;;;4954391;28;20039;-80
2020/12/13 04:15:43;;;;;;;27.05;18.15;;;8.70;99.90;;;;;;4955631;29;20027;-81
2020/12/13 04:18:08;;;;;;;27.20;19.55;;;8.70;99.90;;;;;;4954328;29;20045;-82
2020/12/13 04:20:34;;;;;;;29.10;19.52;;;8.70;99.90;;;;;;4955249;29;20027;-82
2020/12/13 04:23:00;;;;;;;28.58;19.70;;;8.70;99.90;;;;;;4955437;29;20114;-80
2020/12/13 04:25:26;;;;;;;26.17;18.73;;;8.70;99.90;;;;;;4955144;29;20031;-80
2020/12/13 04:27:52;;;;;;;27.35;19.25;;;8.70;99.90;;;;;;4955869;29;20035;-82
2020/12/13 04:30:19;;;;;;;33.60;20.67;;;8.70;99.90;;;;;;4953825;29;20027;-81
2020/12/13 04:32:44;;;;;;;28.98;19.50;;;8.60;99.90;;;;;;4954049;29;20043;-81
2020/12/13 04:35:11;;;;;;;28.80;18.17;;;8.60;99.90;;;;;;4954514;29;20027;-81
2020/12/13 04:37:37;;;;;;;27.10;18.05;;;8.60;99.90;;;;;;4953981;28;20033;-81
2020/12/13 04:40:04;;;;;;;30.60;19.75;;;8.60;99.90;;;;;;4954945;29;20019;-81
2020/12/13 04:42:33;;;;;;;28.08;18.85;;;8.60;99.90;;;;;;4955057;29;20074;-80
2020/12/13 04:45:00;;;;;;;27.92;18.90;;;8.70;99.90;;;;;;4954539;29;20399;-82
2020/12/13 04:47:29;;;;;;;31.58;19.42;;;8.70;99.90;;;;;;4954833;28;20027;-81
2020/12/13 04:49:57;;;;;;;28.92;19.77;;;8.70;99.90;;;;;;4953557;29;20031;-81
2020/12/13 04:52:24;;;;;;;30.27;19.10;;;8.70;99.90;;;;;;4953561;29;20122;-85
2020/12/13 04:54:51;;;;;;;29.95;20.00;;;8.60;99.90;;;;;;4954772;29;20376;-81
2020/12/13 04:57:18;;;;;;;32.08;19.95;;;8.60;99.90;;;;;;4953714;29;20035;-81
2020/12/13 04:59:47;;;;;;;30.30;19.30;;;8.60;99.90;;;;;;4954278;29;20126;-80
2020/12/13 05:02:14;;;;;;;31.23;19.05;;;8.60;99.90;;;;;;4953567;29;20450;-82
2020/12/13 05:04:41;;;;;;;31.55;19.13;;;8.60;99.90;;;;;;4934150;29;20098;-81
2020/12/13 05:07:08;;;;;;;29.95;20.67;;;8.50;99.90;;;;;;4933891;29;20035;-82
2020/12/13 05:09:34;;;;;;;30.17;20.30;;;8.50;99.90;;;;;;4934272;29;20056;-81
2020/12/13 05:12:00;;;;;;;29.05;20.20;;;8.50;99.90;;;;;;4934120;29;20035;-81
2020/12/13 05:14:26;;;;;;;32.47;20.42;;;8.50;99.90;;;;;;4933860;29;20408;-81
2020/12/13 05:17:10;;;;;;;38.15;23.55;;;8.50;99.90;;;;;;4934190;29;20062;-81
2020/12/13 05:19:38;;;;;;;37.05;23.13;;;8.50;99.90;;;;;;4933967;29;20040;-81
2020/12/13 05:22:05;;;;;;;33.97;22.55;;;8.50;99.90;;;;;;4935285;29;20028;-80
2020/12/13 05:24:32;;;;;;;33.15;23.02;;;8.50;99.90;;;;;;4934054;29;20058;-80
2020/12/13 05:27:00;;;;;;;35.63;22.60;;;8.40;99.90;;;;;;4935371;29;20424;-81
2020/12/13 05:29:29;;;;;;;34.95;23.42;;;8.40;99.90;;;;;;4935389;29;20091;-80
2020/12/13 05:32:11;;;;;;;34.08;21.88;;;8.40;99.90;;;;;;4934965;29;20508;-82
2020/12/13 05:34:42;;;;;;;34.75;21.38;;;8.40;99.90;;;;;;4934928;29;20024;-81
2020/12/13 05:37:14;;;;;;;39.78;21.92;;;8.50;99.90;;;;;;4933665;29;20027;-80
2020/12/13 05:39:42;;;;;;;34.70;21.73;;;8.60;99.90;;;;;;4933335;29;20380;-80
2020/12/13 05:42:09;;;;;;;33.40;22.08;;;8.60;99.90;;;;;;4933273;29;20078;-80
2020/12/13 05:52:03;;;;;;;32.85;21.27;;;8.70;99.90;;;;;;4934665;29;20714;-80
2020/12/13 05:54:29;;;;;;;33.72;21.13;;;8.70;99.90;;;;;;4933397;29;20031;-80
2020/12/13 05:57:00;;;;;;;32.53;20.63;;;8.80;99.90;;;;;;4934808;29;20078;-81
2020/12/13 05:59:29;;;;;;;35.95;22.52;;;8.80;99.90;;;;;;4917143;29;20120;-81
2020/12/13 06:01:57;;;;;;;34.10;22.30;;;8.80;99.90;;;;;;4933509;29;20114;-81
2020/12/13 06:04:33;;;;;;;36.20;22.50;;;8.80;99.90;;;;;;4950164;29;20019;-81
2020/12/13 06:07:03;;;;;;;37.70;23.10;;;8.60;99.90;;;;;;4953509;29;20023;-81
2020/12/13 06:09:34;;;;;;;36.25;22.27;;;8.60;99.90;;;;;;4952176;28;20067;-82
2020/12/13 06:12:05;;;;;;;33.10;22.30;;;8.70;99.90;;;;;;4953230;29;20046;-81
2020/12/13 06:14:33;;;;;;;34.25;21.27;;;8.80;99.90;;;;;;4952558;29;20047;-81
2020/12/13 06:17:01;;;;;;;35.92;22.08;;;8.80;99.90;;;;;;4952388;29;20027;-81
2020/12/13 06:19:29;;;;;;;35.53;22.13;;;8.80;99.90;;;;;;4953545;29;20027;-81
2020/12/13 06:21:56;;;;;;;32.90;22.08;;;8.90;99.90;;;;;;4953477;29;20035;-82
2020/12/13 06:24:22;;;;;;;32.53;21.67;;;8.80;99.90;;;;;;4953771;29;20645;-82
2020/12/13 06:26:50;;;;;;;33.88;22.58;;;8.80;99.90;;;;;;4952081;29;20031;-82
2020/12/13 06:29:17;;;;;;;33.05;20.98;;;8.50;99.90;;;;;;4953761;29;20031;-81
2020/12/13 06:31:45;;;;;;;32.50;22.15;;;8.60;99.90;;;;;;4952355;29;20031;-80
2020/12/13 06:34:13;;;;;;;32.42;22.65;;;8.70;99.90;;;;;;4953453;29;20045;-81
2020/12/13 06:36:39;;;;;;;33.97;21.65;;;8.70;99.90;;;;;;4953588;29;20086;-80
2020/12/13 06:39:14;;;;;;;32.05;20.75;;;8.80;99.90;;;;;;4953533;29;20058;-82
2020/12/13 06:41:50;;;;;;;32.67;21.67;;;8.80;99.90;;;;;;4953098;29;20031;-82
2020/12/13 06:44:17;;;;;;;38.97;21.52;;;8.70;99.90;;;;;;4951946;29;20046;-82
2020/12/13 06:46:45;;;;;;;32.17;20.75;;;8.70;99.90;;;;;;4936004;29;20027;-81
2020/12/13 06:49:16;;;;;;;33.67;21.05;;;8.60;99.90;;;;;;4953285;29;20023;-80
2020/12/13 06:51:43;;;;;;;30.38;21.63;;;8.70;99.90;;;;;;4951764;29;20086;-81
2020/12/13 06:54:15;;;;;;;34.70;21.00;;;8.70;99.90;;;;;;4953245;29;20110;-82
2020/12/13 06:56:42;;;;;;;32.53;21.38;;;8.80;99.90;;;;;;4951978;29;20590;-82
2020/12/13 06:59:09;;;;;;;28.13;20.25;;;8.90;99.90;;;;;;4953305;29;20110;-80
2020/12/13 07:01:39;;;;;;;31.42;20.85;;;8.90;99.90;;;;;;4953109;29;20037;-81
2020/12/13 07:04:31;;;;;;;32.33;21.38;;;8.80;99.90;;;;;;4951986;29;20059;-81
2020/12/13 07:07:10;;;;;;;33.20;21.17;;;8.80;99.90;;;;;;4951812;29;20028;-82
2020/12/13 07:09:38;;;;;;;32.30;21.80;;;8.80;99.90;;;;;;4952099;29;20077;-82
2020/12/13 07:12:04;;;;;;;34.35;23.13;;;8.70;99.90;;;;;;4955514;28;20042;-84
2020/12/13 07:14:34;;;;;;;34.80;23.23;;;8.80;99.90;;;;;;4955444;29;20035;-81
2020/12/13 07:17:09;;;;;;;36.25;23.63;;;8.80;99.90;;;;;;4956419;29;20019;-81
2020/12/13 07:19:37;;;;;;;36.95;24.75;;;8.80;99.90;;;;;;4955185;29;20530;-82
2020/12/13 07:22:11;;;;;;;41.55;23.20;;;8.60;99.90;;;;;;4956500;29;20026;-81
2020/12/13 07:24:38;;;;;;;38.38;24.58;;;8.80;99.90;;;;;;4955066;29;20039;-80
2020/12/13 07:27:05;;;;;;;37.40;24.00;;;8.90;99.90;;;;;;4955020;29;20113;-81
2020/12/13 07:29:32;;;;;;;45.63;26.67;;;8.90;99.90;;;;;;4955173;29;20063;-81
2020/12/13 07:31:58;;;;;;;48.53;31.65;;;8.90;99.90;;;;;;4955094;29;20035;-81
2020/12/13 07:34:24;;;;;;;52.60;32.47;;;8.90;99.90;;;;;;4955160;29;20629;-79
2020/12/13 07:36:50;;;;;;;56.22;34.75;;;8.80;99.90;;;;;;4956448;29;20156;-83
2020/12/13 07:39:17;;;;;;;53.88;34.38;;;8.70;99.90;;;;;;4938954;29;20471;-82
2020/12/13 07:41:44;;;;;;;54.05;33.25;;;8.70;99.90;;;;;;4954734;29;20534;-81
2020/12/13 07:44:14;;;;;;;53.05;32.30;;;8.70;99.90;;;;;;4956213;29;20114;-82
2020/12/13 07:46:41;;;;;;;47.38;30.80;;;8.70;99.90;;;;;;4956179;29;20019;-82
2020/12/13 07:49:21;;;;;;;42.53;28.35;;;8.90;99.90;;;;;;4956009;29;20671;-81
2020/12/13 07:51:49;;;;;;;43.45;28.27;;;9.00;99.90;;;;;;4954937;29;20031;-80
2020/12/13 07:54:18;;;;;;;47.30;28.35;;;9.10;99.90;;;;;;4949643;28;20043;-78
2020/12/13 07:56:46;;;;;;;44.95;27.83;;;9.20;99.90;;;;;;4934398;28;20027;-78
2020/12/13 07:59:20;;;;;;;38.00;24.55;;;9.20;99.90;;;;;;4959489;28;20034;-83
2020/12/13 08:01:52;;;;;;;35.50;23.85;;;9.20;99.90;;;;;;4954371;28;20450;-81
2020/12/13 08:04:34;;;;;;;37.50;22.05;;;9.20;99.90;;;;;;4960129;28;20031;-81
2020/12/13 08:07:02;;;;;;;32.97;22.13;;;8.90;99.90;;;;;;4953794;29;20027;-82
2020/12/13 08:09:28;;;;;;;29.48;20.25;;;9.00;99.90;;;;;;4936119;29;20527;-81
2020/12/13 08:11:54;;;;;;;32.75;20.48;;;9.10;99.90;;;;;;4955382;29;20122;-83
2020/12/13 08:14:22;;;;;;;30.10;19.45;;;9.20;99.90;;;;;;4938180;29;20363;-81
2020/12/13 08:16:52;;;;;;;30.40;19.85;;;9.10;99.90;;;;;;4951868;29;20031;-82
2020/12/13 08:19:26;;;;;;;27.50;19.60;;;9.00;99.90;;;;;;4936067;29;20031;-83
2020/12/13 08:22:22;;;;;;;29.67;19.75;;;8.90;99.90;;;;;;4954993;29;20502;-82
2020/12/13 08:24:57;;;;;;;34.10;22.35;;;8.90;99.90;;;;;;4932931;29;20031;-83
2020/12/13 08:27:26;;;;;;;32.85;22.58;;;9.00;99.90;;;;;;4951121;28;20031;-82
2020/12/13 08:29:52;;;;;;;41.88;25.90;;;8.90;99.90;;;;;;4954805;29;20035;-82
2020/12/13 08:32:22;;;;;;;42.03;26.38;;;8.90;99.90;;;;;;4937099;29;20039;-83
2020/12/13 08:34:49;;;;;;;38.95;24.75;;;8.90;99.90;;;;;;4954781;29;20074;-81
2020/12/13 08:37:24;;;;;;;37.83;26.30;;;8.80;99.90;;;;;;4959720;28;20458;-83
2020/12/13 08:39:50;;;;;;;38.88;25.35;;;8.90;99.90;;;;;;4965002;28;20019;-81
2020/12/13 08:42:25;;;;;;;34.17;23.17;;;9.00;99.90;;;;;;4952237;29;20051;-80
2020/12/13 08:44:51;;;;;;;37.00;23.20;;;9.10;99.90;;;;;;4954894;29;20037;-82
2020/12/13 08:47:19;;;;;;;32.53;23.05;;;9.10;99.90;;;;;;4954085;29;20360;-81
2020/12/13 08:49:49;;;;;;;37.20;24.65;;;9.20;99.90;;;;;;4953643;29;20032;-79
2020/12/13 08:52:26;;;;;;;36.60;24.23;;;9.20;99.90;;;;;;4952995;29;20043;-78
2020/12/13 08:54:53;;;;;;;34.92;23.90;;;9.30;99.90;;;;;;4953288;29;20369;-81
2020/12/13 08:57:30;;;;;;;33.47;23.42;;;9.40;99.90;;;;;;4955067;29;20027;-81
2020/12/13 09:00:10;;;;;;;36.78;23.15;;;9.30;99.90;;;;;;4954843;29;20029;-80
2020/12/13 09:02:37;;;;;;;39.53;25.33;;;9.30;99.90;;;;;;4954506;29;20031;-80
2020/12/13 09:05:07;;;;;;;37.45;25.08;;;9.20;99.90;;;;;;4954650;29;20027;-81
2020/12/13 09:07:34;;;;;;;39.28;26.08;;;9.10;99.90;;;;;;4954667;28;20257;-81
2020/12/13 09:10:09;;;;;;;40.58;27.08;;;9.20;99.90;;;;;;4954388;29;20352;-81
2020/12/13 09:12:35;;;;;;;40.13;27.83;;;9.40;99.90;;;;;;4937124;29;20047;-79
2020/12/13 09:15:19;;;;;;;39.45;25.90;;;9.40;99.90;;;;;;4953314;29;20031;-81
2020/12/13 09:17:56;;;;;;;43.92;28.55;;;9.40;99.90;;;;;;4952971;29;20061;-81
2020/12/13 09:20:27;;;;;;;36.38;24.58;;;9.40;99.90;;;;;;4952756;29;20028;-82
2020/12/13 09:23:06;;;;;;;42.65;25.50;;;9.30;99.90;;;;;;4954197;29;20107;-84
2020/12/13 09:25:54;;;;;;;37.60;25.02;;;9.40;99.90;;;;;;4953783;29;20027;-81
2020/12/13 09:28:20;;;;;;;39.90;26.33;;;9.50;99.90;;;;;;4952763;29;20135;-80
2020/12/13 09:30:46;;;;;;;45.55;27.40;;;9.60;99.90;;;;;;4936860;29;20023;-80
2020/12/13 09:33:14;;;;;;;38.28;26.80;;;9.60;99.90;;;;;;4952145;29;20035;-83
2020/12/13 09:35:40;;;;;;;44.33;28.38;;;9.60;99.90;;;;;;4952953;28;20034;-80
2020/12/13 09:38:08;;;;;;;41.08;26.77;;;9.70;99.90;;;;;;4953811;29;20023;-81
2020/12/13 09:40:35;;;;;;;76.63;47.13;;;9.80;99.90;;;;;;4952464;29;20407;-84
2020/12/13 09:43:02;;;;;;;55.38;37.40;;;9.80;99.90;;;;;;4953542;29;20082;-80
2020/12/13 09:45:29;;;;;;;121.07;70.22;;;9.90;99.90;;;;;;4953400;29;20043;-82
2020/12/13 09:47:57;;;;;;;202.05;106.97;;;10.00;99.90;;;;;;4937649;29;20039;-81
2020/12/13 09:50:24;;;;;;;90.35;55.92;;;10.10;99.90;;;;;;4952378;29;20454;-80
2020/12/13 09:52:50;;;;;;;65.32;40.20;;;10.20;99.90;;;;;;4952137;29;20039;-79
2020/12/13 09:55:15;;;;;;;80.78;49.72;;;10.60;99.90;;;;;;4953488;29;20034;-80
2020/12/13 09:57:45;;;;;;;49.92;32.17;;;10.30;99.90;;;;;;4954984;28;20118;-79
2020/12/13 10:00:10;;;;;;;45.28;27.88;;;10.00;99.90;;;;;;4936418;29;20352;-80
2020/12/13 10:02:36;;;;;;;44.25;28.13;;;10.00;99.90;;;;;;4936079;29;20486;-79
2020/12/13 10:05:04;;;;;;;43.92;26.70;;;10.00;99.90;;;;;;4952671;28;20097;-80
2020/12/13 10:10:12;;;;;;;41.05;26.45;;;9.90;99.90;;;;;;4943044;28;20059;-82
2020/12/13 10:12:37;;;;;;;42.10;27.42;;;9.90;99.90;;;;;;4951699;28;20043;-80
2020/12/13 10:15:03;;;;;;;41.03;27.63;;;10.10;99.90;;;;;;4951869;29;20038;-79
2020/12/13 10:17:30;;;;;;;42.90;26.77;;;10.20;99.90;;;;;;4936085;29;20506;-80
2020/12/13 10:19:56;;;;;;;44.15;26.77;;;10.20;99.90;;;;;;4953299;29;20026;-81
2020/12/13 10:22:21;;;;;;;41.47;27.02;;;10.20;99.90;;;;;;4951798;28;20031;-82
2020/12/13 10:24:47;;;;;;;57.15;35.10;;;10.20;99.90;;;;;;4951560;28;20031;-83
2020/12/13 10:27:13;;;;;;;45.72;30.17;;;10.30;99.90;;;;;;4952310;29;20421;-82
2020/12/13 10:29:38;;;;;;;77.10;48.95;;;10.50;99.90;;;;;;4953390;29;20111;-83
2020/12/13 10:32:04;;;;;;;82.93;48.38;;;10.50;99.90;;;;;;4953115;29;20122;-79
2020/12/13 10:34:30;;;;;;;45.38;30.98;;;10.30;99.90;;;;;;4951407;29;20126;-82
2020/12/13 10:36:56;;;;;;;47.92;30.08;;;10.00;99.90;;;;;;4953336;28;20023;-80
2020/12/13 10:39:22;;;;;;;40.78;26.65;;;10.70;99.90;;;;;;4953096;29;20491;-79
2020/12/13 10:41:51;;;;;;;42.03;27.02;;;10.60;99.90;;;;;;4951242;29;20058;-79
2020/12/13 10:44:19;;;;;;;46.22;27.60;;;10.80;99.90;;;;;;4952940;29;20431;-80
2020/12/13 10:46:46;;;;;;;36.33;24.13;;;10.80;99.90;;;;;;4954691;28;20027;-81
2020/12/13 10:49:13;;;;;;;40.15;24.48;;;10.60;99.90;;;;;;4956811;29;20053;-82
2020/12/13 10:51:38;;;;;;;31.42;21.52;;;10.60;99.90;;;;;;4955842;29;20435;-82
2020/12/13 10:54:04;;;;;;;36.03;22.50;;;10.50;99.90;;;;;;4955382;29;20725;-84
2020/12/13 10:56:30;;;;;;;33.72;22.38;;;10.70;99.90;;;;;;4956573;29;20027;-84
2020/12/13 10:58:56;;;;;;;33.63;22.35;;;10.60;99.90;;;;;;4956888;29;20039;-83
2020/12/13 11:01:21;;;;;;;33.03;20.52;;;10.30;99.90;;;;;;4955672;29;20121;-81
2020/12/13 11:03:47;;;;;;;32.08;20.30;;;10.10;99.90;;;;;;4955977;29;20101;-84
2020/12/13 11:06:13;;;;;;;31.13;18.65;;;10.10;99.90;;;;;;4955381;29;20031;-83
2020/12/13 11:08:39;;;;;;;32.65;20.48;;;10.00;99.90;;;;;;4955092;28;20042;-85
2020/12/13 11:11:05;;;;;;;32.67;20.23;;;10.10;99.90;;;;;;4939184;29;20090;-85
2020/12/13 11:13:31;;;;;;;32.80;20.92;;;10.10;99.90;;;;;;4955638;29;20058;-85
2020/12/13 11:15:57;;;;;;;31.35;18.83;;;10.30;99.90;;;;;;4956164;29;20106;-81
2020/12/13 11:18:23;;;;;;;25.40;16.85;;;10.00;99.90;;;;;;4954543;29;20118;-80
2020/12/13 11:20:49;;;;;;;30.48;19.55;;;10.00;99.90;;;;;;4938032;29;20168;-84
2020/12/13 11:23:14;;;;;;;31.35;18.42;;;10.20;99.90;;;;;;4955943;28;20027;-87
2020/12/13 11:25:40;;;;;;;30.73;18.52;;;10.40;99.90;;;;;;4954925;29;20058;-84
2020/12/13 11:28:07;;;;;;;26.00;17.45;;;10.60;99.90;;;;;;4954498;29;20070;-84
2020/12/13 11:30:34;;;;;;;26.45;16.50;;;10.70;99.90;;;;;;4956133;29;20027;-85
2020/12/13 11:33:00;;;;;;;26.33;16.70;;;10.80;99.90;;;;;;4954298;29;20039;-83
2020/12/13 11:35:26;;;;;;;26.45;16.83;;;10.80;99.90;;;;;;4955889;29;20070;-84
2020/12/13 11:37:52;;;;;;;27.83;16.05;;;10.80;99.90;;;;;;4954377;28;20067;-85
2020/12/13 11:40:18;;;;;;;26.58;17.17;;;10.80;99.90;;;;;;4956305;29;20047;-84
2020/12/13 11:42:43;;;;;;;25.98;16.30;;;10.70;99.90;;;;;;4953395;29;20414;-83
2020/12/13 11:45:10;;;;;;;20.75;14.02;;;10.70;99.90;;;;;;4955160;29;20070;-84
2020/12/13 11:47:36;;;;;;;18.80;12.85;;;10.70;99.90;;;;;;4953489;29;20035;-84
2020/12/13 11:50:04;;;;;;;19.30;12.27;;;10.70;99.90;;;;;;4954909;29;20026;-85
2020/12/13 11:52:29;;;;;;;18.80;12.30;;;10.70;99.90;;;;;;4955477;28;20042;-83
2020/12/13 11:54:58;;;;;;;21.88;13.05;;;10.80;99.90;;;;;;4953659;29;20023;-80
2020/12/13 11:57:24;;;;;;;20.45;12.43;;;10.70;99.90;;;;;;4954449;28;20063;-83
2020/12/13 11:59:49;;;;;;;19.98;12.88;;;10.70;99.90;;;;;;4953415;29;20054;-85
2020/12/13 12:02:15;;;;;;;20.33;13.63;;;10.70;99.90;;;;;;4953739;29;20035;-81
2020/12/13 12:04:41;;;;;;;33.17;21.35;;;10.70;99.90;;;;;;4954966;29;20015;-80
2020/12/13 12:07:07;;;;;;;49.83;30.23;;;10.70;99.90;;;;;;4954116;28;20031;-81
2020/12/13 12:09:33;;;;;;;49.22;31.25;;;10.80;99.90;;;;;;4953828;29;20038;-85
2020/12/13 12:11:59;;;;;;;52.42;33.00;;;10.70;99.90;;;;;;4954589;29;20027;-81
2020/12/13 12:14:25;;;;;;;53.45;34.90;;;10.70;99.90;;;;;;4952658;29;20062;-80
2020/12/13 12:16:50;;;;;;;52.08;35.13;;;10.70;99.90;;;;;;4952772;29;20537;-81
2020/12/13 12:19:16;;;;;;;56.17;33.50;;;10.70;99.90;;;;;;4952853;28;20115;-81
2020/12/13 12:21:47;;;;;;;50.45;31.42;;;10.80;99.90;;;;;;4957790;28;20463;-83
2020/12/13 12:24:16;;;;;;;56.60;36.42;;;10.80;99.90;;;;;;4956916;28;20034;-80
2020/12/13 12:26:42;;;;;;;56.50;36.22;;;10.70;99.90;;;;;;4974444;28;20027;-84
2020/12/13 12:29:08;;;;;;;57.35;35.50;;;10.70;99.90;;;;;;4973908;28;20419;-81
2020/12/13 12:31:34;;;;;;;50.83;32.60;;;10.70;99.90;;;;;;4974091;28;20524;-82
2020/12/13 12:34:00;;;;;;;51.17;33.20;;;10.80;99.90;;;;;;4974246;28;20027;-82
2020/12/13 12:36:28;;;;;;;52.63;34.58;;;10.80;99.90;;;;;;4973095;28;20034;-82
2020/12/13 12:38:54;;;;;;;51.00;32.80;;;10.80;99.90;;;;;;4954703;29;20035;-83
2020/12/13 12:41:22;;;;;;;49.78;33.22;;;10.70;99.90;;;;;;4953614;29;20071;-81
2020/12/13 12:43:50;;;;;;;50.97;32.97;;;10.80;99.90;;;;;;4952833;29;20065;-83
2020/12/13 12:46:19;;;;;;;49.20;34.15;;;10.80;99.90;;;;;;4953682;29;20074;-82
2020/12/13 12:48:47;;;;;;;50.65;33.65;;;10.80;99.90;;;;;;4953068;29;20030;-81